Time;durP1;ratioP1;P1;durP2;ratioP2;P2;SDS_P1;SDS_P2;PMS_P1;PMS_P2;Temp;Humidity;BMP_temperature;BMP_pressure;BME280_temperature;BME280_humidity;BME280_pressure;Samples;Min_cycle;Max_cycle;Signal;HPM_P1;HPM_P2
2022/05/26 00:00:08;;;;;;;8.73;4.20;;;;;;;16.77;97.55;99166.75;1704429;84;21039;-78
2022/05/26 00:02:37;;;;;;;10.32;4.30;;;;;;;16.70;98.60;99178.00;1696676;84;21008;-76
2022/05/26 00:05:05;;;;;;;11.65;5.08;;;;;;;16.70;100.00;99179.78;1709320;84;21488;-78
2022/05/26 00:07:31;;;;;;;10.32;5.08;;;;;;;16.68;100.00;99170.66;1705199;84;21570;-78
2022/05/26 00:09:58;;;;;;;11.65;4.60;;;;;;;16.64;100.00;99178.77;1707870;83;21077;-78
2022/05/26 00:12:25;;;;;;;10.40;4.67;;;;;;;16.61;100.00;99173.66;1704818;83;21114;-78
2022/05/26 00:14:51;;;;;;;15.55;5.05;;;;;;;16.60;100.00;99164.09;1711203;84;21523;-79
2022/05/26 00:17:18;;;;;;;8.25;4.30;;;;;;;16.59;100.00;99172.88;1711195;83;21008;-80
2022/05/26 00:19:45;;;;;;;9.63;4.55;;;;;;;16.60;100.00;99165.41;1718479;83;20996;-78
2022/05/26 00:22:12;;;;;;;9.28;4.55;;;;;;;16.59;100.00;99176.81;1704999;83;21087;-79
2022/05/26 00:24:38;;;;;;;9.15;4.87;;;;;;;16.61;100.00;99176.28;1701033;84;21047;-78
2022/05/26 00:27:05;;;;;;;7.17;4.55;;;;;;;16.57;100.00;99175.56;1704585;83;21522;-79
2022/05/26 00:29:34;;;;;;;10.40;5.35;;;;;;;16.56;100.00;99183.07;1715049;83;21039;-78
2022/05/26 00:32:01;;;;;;;17.55;4.40;;;;;;;16.55;100.00;99168.23;1712183;83;21423;-78
2022/05/26 00:34:27;;;;;;;10.28;4.35;;;;;;;16.56;100.00;99176.98;1712202;83;21522;-79
2022/05/26 00:36:54;;;;;;;14.38;4.30;;;;;;;16.56;100.00;99167.33;1712465;83;20989;-79
2022/05/26 00:39:23;;;;;;;7.65;3.83;;;;;;;16.59;100.00;99176.81;1717087;83;21016;-79
2022/05/26 00:42:01;;;;;;;10.40;4.17;;;;;;;16.62;100.00;99156.52;1706675;83;20992;-79
2022/05/26 00:44:29;;;;;;;6.25;3.10;;;;;;;16.57;100.00;99148.48;1713508;84;21063;-79
2022/05/26 00:47:18;;;;;;;10.15;3.27;;;;;;;16.60;100.00;99137.84;1705158;84;21003;-79
2022/05/26 00:49:50;;;;;;;7.42;2.85;;;;;;;16.56;100.00;99128.43;1698042;84;21007;-78
2022/05/26 00:52:21;;;;;;;7.53;2.83;;;;;;;16.54;100.00;99110.13;1703455;84;20992;-79
2022/05/26 00:54:51;;;;;;;5.90;2.90;;;;;;;16.51;100.00;99072.21;1699794;84;21480;-78
2022/05/26 00:57:29;;;;;;;4.53;2.25;;;;;;;16.48;100.00;99055.33;1703064;84;21094;-79
2022/05/26 01:00:10;;;;;;;5.03;2.77;;;;;;;16.45;100.00;99001.23;1705871;84;21004;-79
2022/05/26 01:02:45;;;;;;;4.70;2.20;;;;;;;16.45;100.00;98999.92;1712059;84;21019;-79
2022/05/26 01:05:16;;;;;;;6.37;2.33;;;;;;;16.45;100.00;98993.80;1697967;83;21007;-79
2022/05/26 01:07:43;;;;;;;6.00;2.27;;;;;;;16.40;100.00;98965.66;1713707;83;21020;-78
2022/05/26 01:10:12;;;;;;;4.78;2.10;;;;;;;16.39;100.00;98945.11;1708209;83;21535;-79
2022/05/26 01:12:39;;;;;;;9.48;2.20;;;;;;;16.36;100.00;98930.85;1703138;83;21094;-78
2022/05/26 01:15:15;;;;;;;5.53;2.10;;;;;;;16.33;98.98;98928.38;1707532;83;21003;-81
2022/05/26 01:18:10;;;;;;;4.78;1.87;;;;;;;16.28;99.45;98957.94;1717406;83;21101;-79
2022/05/26 01:20:54;;;;;;;3.95;2.00;;;;;;;16.27;98.40;98996.45;1710573;83;21038;-79
2022/05/26 01:24:01;;;;;;;5.87;2.17;;;;;;;16.23;97.23;99013.70;1709702;83;21001;-79
2022/05/26 01:26:51;;;;;;;8.05;1.90;;;;;;;16.20;97.21;99041.42;1718439;83;20992;-79
2022/05/26 01:30:01;;;;;;;4.50;1.65;;;;;;;16.18;96.32;99061.16;1715806;83;20990;-78
2022/05/26 01:33:01;;;;;;;2.87;1.70;;;;;;;16.17;95.69;99063.84;1714827;83;20985;-79
2022/05/26 01:35:39;;;;;;;5.15;1.62;;;;;;;16.20;94.83;99065.02;1706377;83;20971;-79
2022/05/26 01:38:29;;;;;;;3.55;1.60;;;;;;;16.22;94.62;99064.48;1717074;83;21015;-79
2022/05/26 01:41:19;;;;;;;4.17;1.70;;;;;;;16.25;94.42;99061.26;1710595;83;20971;-78
2022/05/26 01:43:57;;;;;;;3.80;1.75;;;;;;;16.27;93.62;99050.23;1707472;83;21143;-79
2022/05/26 01:46:36;;;;;;;3.95;2.00;;;;;;;16.28;93.01;99044.51;1703642;83;20983;-78
2022/05/26 01:49:32;;;;;;;4.37;1.60;;;;;;;16.30;92.59;99042.66;1698729;83;21012;-79
2022/05/26 01:52:18;;;;;;;2.30;1.40;;;;;;;16.30;92.67;99040.87;1712177;83;21000;-76
2022/05/26 01:55:09;;;;;;;6.03;1.40;;;;;;;16.32;92.14;99041.28;1711451;83;21583;-79
2022/05/26 01:57:44;;;;;;;6.95;1.72;;;;;;;16.30;91.75;99033.01;1699548;83;21514;-79
2022/05/26 02:00:15;;;;;;;5.47;1.70;;;;;;;16.31;91.32;99027.29;1713587;83;21040;-78
2022/05/26 02:02:55;;;;;;;2.37;1.30;;;;;;;16.31;91.20;99016.80;1712053;83;20992;-78
2022/05/26 02:05:27;;;;;;;2.98;1.40;;;;;;;16.33;90.58;99021.50;1718625;83;21043;-79
2022/05/26 02:08:15;;;;;;;5.00;1.30;;;;;;;16.33;90.49;99024.59;1711245;83;21051;-79
2022/05/26 02:10:56;;;;;;;3.45;1.60;;;;;;;16.36;89.87;99026.61;1712575;83;20988;-78
2022/05/26 02:13:37;;;;;;;4.90;1.37;;;;;;;16.37;89.70;99028.29;1714600;82;21064;-79
2022/05/26 02:16:32;;;;;;;4.08;1.77;;;;;;;16.43;88.63;99045.07;1710197;83;21570;-78
2022/05/26 02:19:28;;;;;;;3.70;1.40;;;;;;;16.46;89.06;99044.90;1704414;83;21066;-79
2022/05/26 02:22:16;;;;;;;2.72;1.67;;;;;;;16.49;88.44;99050.01;1695462;83;21043;-80
2022/05/26 02:25:06;;;;;;;3.08;1.30;;;;;;;16.46;88.96;99059.33;1714657;83;21052;-78
2022/05/26 02:27:36;;;;;;;2.52;1.30;;;;;;;16.43;88.26;99069.13;1713595;83;21079;-79
2022/05/26 02:30:06;;;;;;;3.47;1.52;;;;;;;16.37;88.09;99068.95;1711378;83;21020;-79
2022/05/26 02:32:37;;;;;;;3.05;1.50;;;;;;;16.38;87.75;99067.20;1715697;83;21032;-79
2022/05/26 02:35:09;;;;;;;3.20;1.50;;;;;;;16.40;87.16;99074.54;1711651;83;21499;-78
2022/05/26 02:37:37;;;;;;;5.83;1.98;;;;;;;16.39;86.78;99078.91;1716058;83;21025;-79
2022/05/26 02:40:07;;;;;;;5.50;1.67;;;;;;;16.40;86.26;99079.31;1705367;83;20976;-79
2022/05/26 02:42:39;;;;;;;6.17;1.40;;;;;;;16.39;86.11;99082.85;1716232;83;21555;-80
2022/05/26 02:45:07;;;;;;;2.62;1.60;;;;;;;16.38;85.92;99090.34;1706191;83;21060;-79
2022/05/26 02:47:57;;;;;;;3.50;1.37;;;;;;;16.36;85.29;99100.07;1717805;83;20988;-79
2022/05/26 02:50:52;;;;;;;2.80;1.40;;;;;;;16.34;85.09;99108.48;1703887;83;20992;-79
2022/05/26 02:53:32;;;;;;;4.17;1.62;;;;;;;16.28;85.03;99108.31;1715549;83;21039;-80
2022/05/26 02:56:16;;;;;;;4.15;1.72;;;;;;;16.20;87.08;99106.52;1704804;83;20980;-79
2022/05/26 02:58:51;;;;;;;4.45;1.40;;;;;;;16.17;86.08;99094.01;1716617;83;20995;-79
2022/05/26 03:01:28;;;;;;;6.55;1.75;;;;;;;16.16;86.44;99102.34;1705710;83;21507;-79
2022/05/26 03:04:06;;;;;;;4.92;1.77;;;;;;;16.18;86.56;99096.56;1705171;83;21015;-79
2022/05/26 03:06:52;;;;;;;3.22;1.40;;;;;;;16.22;86.03;99099.89;1704975;83;21067;-80
2022/05/26 03:09:21;;;;;;;5.37;1.70;;;;;;;16.24;86.24;99096.73;1714628;83;21015;-79
2022/05/26 03:11:56;;;;;;;3.52;1.77;;;;;;;16.27;85.63;99109.69;1713811;83;21071;-79
2022/05/26 03:14:25;;;;;;;3.67;1.50;;;;;;;16.30;85.63;99114.80;1716148;83;21058;-79
2022/05/26 03:16:52;;;;;;;3.42;1.90;;;;;;;16.32;85.44;99119.51;1696059;83;21074;-80
2022/05/26 03:19:19;;;;;;;3.33;1.60;;;;;;;16.32;86.04;99119.51;1711575;83;21067;-79
2022/05/26 03:21:47;;;;;;;3.60;1.50;;;;;;;16.35;86.21;99126.38;1706561;83;21074;-80
2022/05/26 03:24:14;;;;;;;3.50;1.70;;;;;;;16.37;87.25;99135.02;1710415;83;21043;-80
2022/05/26 03:26:41;;;;;;;3.52;1.52;;;;;;;16.37;86.54;99142.42;1708551;83;21067;-79
2022/05/26 03:29:08;;;;;;;3.85;1.62;;;;;;;16.38;87.38;99146.76;1708917;83;21023;-79
2022/05/26 03:31:35;;;;;;;2.80;1.50;;;;;;;16.40;86.63;99142.29;1711642;83;21021;-79
2022/05/26 03:42:18;;;;;;;3.25;1.75;;;;;;;16.47;86.90;99152.02;1712127;83;21027;-79
2022/05/26 03:44:45;;;;;;;3.08;1.75;;;;;;;16.53;87.05;99154.34;1701498;83;21035;-80
2022/05/26 03:47:13;;;;;;;3.12;1.60;;;;;;;16.55;86.19;99153.80;1706696;84;20996;-80
2022/05/26 03:49:40;;;;;;;3.10;1.57;;;;;;;16.59;87.21;99153.19;1703741;83;21562;-79
2022/05/26 03:52:07;;;;;;;4.92;1.80;;;;;;;16.65;86.07;99156.83;1706397;84;21055;-79
2022/05/26 03:54:34;;;;;;;3.50;1.92;;;;;;;16.67;86.49;99151.91;1706026;84;21035;-79
2022/05/26 03:57:01;;;;;;;3.47;2.27;;;;;;;16.72;86.44;99147.73;1703204;84;21036;-80
2022/05/26 03:59:27;;;;;;;8.75;2.47;;;;;;;16.79;86.34;99144.34;1708017;84;21027;-80
2022/05/26 04:01:54;;;;;;;3.55;1.80;;;;;;;16.87;85.97;99144.83;1703195;84;22234;-79
2022/05/26 04:04:21;;;;;;;4.12;2.17;;;;;;;16.96;86.81;99150.10;1712130;84;20988;-78
2022/05/26 04:06:48;;;;;;;4.87;1.70;;;;;;;17.02;86.35;99151.11;1709486;83;21012;-79
2022/05/26 04:09:15;;;;;;;2.30;1.62;;;;;;;17.09;86.36;99153.81;1702856;83;21103;-79
2022/05/26 04:11:42;;;;;;;4.15;1.72;;;;;;;17.17;86.99;99162.16;1718164;83;21027;-79
2022/05/26 04:14:08;;;;;;;6.50;1.42;;;;;;;17.24;86.11;99170.56;1711398;83;21087;-79
2022/05/26 04:16:35;;;;;;;3.12;1.57;;;;;;;17.31;86.34;99182.47;1719113;83;21011;-79
2022/05/26 04:19:03;;;;;;;8.45;1.85;;;;;;;17.43;85.22;99174.41;1710106;83;21048;-78
2022/05/26 04:21:29;;;;;;;9.15;1.85;;;;;;;17.48;84.61;99164.49;1705728;83;20987;-79
2022/05/26 04:23:56;;;;;;;4.53;2.12;;;;;;;17.62;84.21;99168.55;1711416;83;21059;-79
2022/05/26 04:26:22;;;;;;;5.50;2.37;;;;;;;17.65;83.73;99164.94;1715973;83;21504;-79
2022/05/26 04:28:49;;;;;;;4.62;2.35;;;;;;;17.68;83.85;99162.97;1712105;83;21471;-79
2022/05/26 04:31:16;;;;;;;5.78;2.60;;;;;;;17.73;83.75;99165.84;1705404;83;21051;-79
2022/05/26 04:33:44;;;;;;;6.12;2.00;;;;;;;17.77;83.83;99155.55;1713972;83;20999;-79
2022/05/26 04:36:11;;;;;;;4.90;2.02;;;;;;;17.78;84.17;99161.17;1702870;83;20980;-78
2022/05/26 04:38:37;;;;;;;3.58;1.90;;;;;;;17.79;84.39;99171.61;1715693;83;21026;-79
2022/05/26 04:41:07;;;;;;;6.60;2.37;;;;;;;17.87;84.68;99179.13;1706593;83;21507;-78
2022/05/26 04:43:34;;;;;;;6.08;2.00;;;;;;;17.88;83.82;99192.17;1713679;83;21023;-79
2022/05/26 04:46:02;;;;;;;9.13;2.37;;;;;;;17.93;83.57;99195.89;1707402;84;21630;-79
2022/05/26 04:48:29;;;;;;;5.95;2.17;;;;;;;17.89;83.57;99205.72;1705864;84;21007;-79
2022/05/26 04:50:56;;;;;;;6.12;2.25;;;;;;;17.95;83.41;99228.22;1705335;84;21031;-79
2022/05/26 04:53:22;;;;;;;11.12;2.45;;;;;;;17.92;83.37;99230.16;1717575;84;20985;-80
2022/05/26 04:55:55;;;;;;;5.75;2.00;;;;;;;17.85;83.22;99232.28;1726649;83;21063;-80
2022/05/26 04:58:23;;;;;;;5.83;1.98;;;;;;;17.77;83.08;99235.74;1705366;84;21028;-79
2022/05/26 05:00:50;;;;;;;3.77;2.05;;;;;;;17.74;83.11;99240.67;1702477;84;20981;-79
2022/05/26 05:03:18;;;;;;;5.60;2.37;;;;;;;17.76;83.62;99228.30;1704235;84;21037;-80
2022/05/26 05:05:45;;;;;;;7.95;2.40;;;;;;;17.82;84.16;99229.77;1703968;84;21055;-80
2022/05/26 05:08:11;;;;;;;7.40;2.42;;;;;;;17.95;83.72;99228.70;1726301;82;21517;-80
2022/05/26 05:10:38;;;;;;;5.15;2.42;;;;;;;18.00;84.20;99229.28;1726369;82;20951;-79
2022/05/26 05:13:05;;;;;;;4.22;2.10;;;;;;;18.12;83.63;99237.83;1725820;82;21556;-79
2022/05/26 05:15:43;;;;;;;4.80;2.35;;;;;;;18.23;83.77;99237.27;1726235;82;21538;-80
2022/05/26 05:18:10;;;;;;;3.98;2.08;;;;;;;18.36;83.04;99238.27;1721967;83;21481;-79
2022/05/26 05:20:38;;;;;;;8.25;2.50;;;;;;;18.44;82.67;99238.73;1720047;83;21023;-79
2022/05/26 05:23:08;;;;;;;7.30;2.22;;;;;;;18.48;82.46;99249.91;1719910;83;21012;-79
2022/05/26 05:25:38;;;;;;;11.25;2.55;;;;;;;18.42;82.55;99252.88;1719801;83;21013;-80
2022/05/26 05:28:12;;;;;;;8.13;2.20;;;;;;;18.39;82.10;99249.95;1718763;83;21007;-79
2022/05/26 05:30:53;;;;;;;6.87;2.17;;;;;;;18.37;81.90;99261.04;1719823;83;21036;-79
2022/05/26 05:33:25;;;;;;;5.80;2.20;;;;;;;18.35;81.97;99262.06;1704376;84;21003;-80
2022/05/26 05:35:57;;;;;;;5.33;2.02;;;;;;;18.29;82.50;99260.61;1705796;84;21532;-80
2022/05/26 05:38:24;;;;;;;3.77;2.20;;;;;;;18.33;82.44;99258.20;1705528;83;21000;-79
2022/05/26 05:40:50;;;;;;;4.75;2.42;;;;;;;18.36;82.60;99254.53;1689457;84;21015;-79
2022/05/26 05:43:17;;;;;;;7.87;2.42;;;;;;;18.38;82.85;99259.25;1707170;84;21033;-79
2022/05/26 05:45:45;;;;;;;5.95;2.45;;;;;;;18.45;82.42;99249.62;1706487;84;20999;-79
2022/05/26 05:48:12;;;;;;;5.12;2.40;;;;;;;18.46;83.15;99250.46;1703038;84;20967;-80
2022/05/26 05:50:38;;;;;;;5.37;2.60;;;;;;;18.62;82.53;99248.70;1712006;84;21028;-79
2022/05/26 05:53:05;;;;;;;6.55;2.62;;;;;;;18.64;83.14;99245.96;1706511;83;20999;-80
2022/05/26 05:55:32;;;;;;;6.83;2.83;;;;;;;18.75;82.52;99238.31;1706448;83;21000;-79
2022/05/26 05:57:59;;;;;;;9.93;2.85;;;;;;;18.81;82.43;99239.31;1709585;83;21596;-80
2022/05/26 06:00:26;;;;;;;5.33;2.90;;;;;;;18.91;81.68;99245.39;1711980;84;21054;-79
2022/05/26 06:02:52;;;;;;;6.20;2.60;;;;;;;18.95;81.46;99243.80;1710870;83;20981;-80
2022/05/26 06:05:19;;;;;;;6.72;2.55;;;;;;;19.11;81.48;99241.61;1705203;84;21015;-79
2022/05/26 06:07:46;;;;;;;5.12;2.60;;;;;;;19.22;81.03;99239.20;1709725;84;20998;-80
2022/05/26 06:10:14;;;;;;;5.22;2.67;;;;;;;19.37;80.54;99236.13;1698439;83;21146;-79
2022/05/26 06:12:41;;;;;;;5.65;2.30;;;;;;;19.52;80.19;99240.94;1699499;84;21112;-79
2022/05/26 06:15:09;;;;;;;9.63;2.92;;;;;;;19.67;80.31;99238.23;1701335;84;21531;-79
2022/05/26 06:17:36;;;;;;;9.88;2.77;;;;;;;19.81;79.47;99247.14;1711027;83;21097;-79
2022/05/26 06:20:05;;;;;;;7.12;2.65;;;;;;;19.95;78.58;99255.06;1703958;84;21088;-80
2022/05/26 06:22:35;;;;;;;5.83;2.80;;;;;;;19.99;77.69;99262.32;1699077;84;21602;-79
2022/05/26 06:25:03;;;;;;;9.23;3.17;;;;;;;20.00;77.18;99271.95;1703305;84;21024;-79
2022/05/26 06:30:18;;;;;;;5.15;2.72;;;;;;;20.02;76.52;99280.62;1701885;84;21015;-80
2022/05/26 06:38:27;;;;;;;7.80;2.75;;;;;;;19.89;77.26;99285.77;1705332;84;21037;-80
2022/05/26 06:40:54;;;;;;;10.72;2.65;;;;;;;19.95;77.17;99285.88;1704109;84;20996;-80
2022/05/26 06:43:21;;;;;;;7.72;3.05;;;;;;;20.03;76.97;99289.77;1699155;84;21039;-80
2022/05/26 06:45:50;;;;;;;5.83;3.20;;;;;;;20.09;75.73;99287.68;1675171;84;21954;-80
2022/05/26 06:48:17;;;;;;;7.80;2.85;;;;;;;20.18;74.85;99284.00;1696083;84;21012;-77
2022/05/26 06:50:44;;;;;;;7.70;3.30;;;;;;;20.29;74.83;99291.73;1701970;83;21542;-79
2022/05/26 06:53:11;;;;;;;6.05;2.80;;;;;;;20.38;74.74;99294.65;1704620;83;21142;-79
2022/05/26 06:55:38;;;;;;;6.92;2.98;;;;;;;20.39;75.05;99302.09;1704909;84;22179;-80
2022/05/26 06:58:05;;;;;;;8.30;2.90;;;;;;;20.29;75.14;99300.48;1699314;84;21055;-78
2022/05/26 07:00:31;;;;;;;5.03;2.72;;;;;;;20.32;75.60;99307.39;1691023;83;21042;-79
2022/05/26 07:02:58;;;;;;;6.40;3.30;;;;;;;20.32;74.96;99305.59;1706571;84;21071;-78
2022/05/26 07:05:25;;;;;;;4.87;2.77;;;;;;;20.29;75.07;99308.41;1710950;84;21040;-79
2022/05/26 07:07:54;;;;;;;8.15;2.92;;;;;;;20.21;75.07;99311.55;1705096;83;21309;-78
2022/05/26 07:10:20;;;;;;;11.97;3.40;;;;;;;20.22;75.12;99315.87;1707838;84;21052;-80
2022/05/26 07:12:47;;;;;;;5.33;3.05;;;;;;;20.29;74.73;99316.33;1704942;83;21058;-79
2022/05/26 07:15:14;;;;;;;7.50;3.27;;;;;;;20.31;74.29;99332.08;1704795;83;21070;-79
2022/05/26 07:17:41;;;;;;;6.17;3.37;;;;;;;20.24;74.23;99331.63;1699032;83;20992;-78
2022/05/26 07:20:10;;;;;;;7.42;3.05;;;;;;;20.22;74.29;99342.75;1716632;83;21059;-78
2022/05/26 07:22:36;;;;;;;8.35;3.35;;;;;;;20.25;74.29;99344.73;1701070;83;21534;-79
2022/05/26 07:25:05;;;;;;;4.95;2.70;;;;;;;20.32;73.73;99353.11;1711162;83;21023;-78
2022/05/26 07:27:32;;;;;;;6.62;3.35;;;;;;;20.42;73.66;99345.48;1715248;83;21024;-79
2022/05/26 07:29:59;;;;;;;5.40;3.20;;;;;;;20.48;73.51;99346.42;1705061;83;21007;-79
2022/05/26 07:32:25;;;;;;;7.72;3.25;;;;;;;20.51;73.35;99354.13;1711873;83;21150;-78
2022/05/26 07:34:52;;;;;;;7.67;3.80;;;;;;;20.58;72.76;99345.37;1715792;83;21027;-79
2022/05/26 07:42:51;;;;;;;10.70;4.37;;;;;;;20.50;71.69;99353.78;1718998;83;21004;-78
2022/05/26 07:45:19;;;;;;;7.75;3.67;;;;;;;20.62;72.06;99347.75;1709311;83;20992;-79
2022/05/26 07:47:47;;;;;;;6.25;2.60;;;;;;;20.71;71.23;99342.39;1718204;83;21031;-81
2022/05/26 07:50:20;;;;;;;13.78;3.72;;;;;;;20.81;69.92;99338.21;1702594;83;21030;-78
2022/05/26 07:52:44;;;;;;;5.97;3.40;;;;;;;20.98;69.90;99356.09;1712951;83;21081;-78
2022/05/26 07:55:11;;;;;;;7.78;3.27;;;;;;;21.09;70.20;99354.08;1713394;83;20992;-79
2022/05/26 07:57:38;;;;;;;7.47;3.55;;;;;;;21.19;69.39;99363.14;1712702;83;21058;-79
2022/05/26 08:00:06;;;;;;;8.40;3.50;;;;;;;21.23;69.08;99357.55;1712927;83;21571;-78
2022/05/26 08:02:35;;;;;;;5.28;3.33;;;;;;;21.27;68.80;99366.13;1709717;83;21047;-78
2022/05/26 08:05:02;;;;;;;4.87;2.90;;;;;;;21.40;69.64;99360.87;1693840;83;21575;-80
2022/05/26 08:07:28;;;;;;;5.12;2.87;;;;;;;21.48;68.81;99367.86;1709664;83;21026;-80
2022/05/26 08:09:55;;;;;;;5.53;3.22;;;;;;;21.53;68.31;99364.45;1709894;83;21035;-78
2022/05/26 08:12:22;;;;;;;7.08;3.00;;;;;;;21.55;67.80;99363.88;1708207;83;21070;-79
2022/05/26 08:14:48;;;;;;;6.17;3.52;;;;;;;21.54;65.46;99355.55;1714855;83;21035;-79
2022/05/26 08:17:22;;;;;;;11.63;3.70;;;;;;;21.60;66.30;99364.39;1706578;83;21003;-80
2022/05/26 08:19:50;;;;;;;7.92;3.77;;;;;;;21.59;66.27;99367.16;1709583;83;21115;-79
2022/05/26 08:22:18;;;;;;;11.55;4.28;;;;;;;21.70;66.98;99375.70;1708229;84;21091;-79
2022/05/26 08:24:53;;;;;;;6.50;3.77;;;;;;;21.71;66.91;99370.80;1716350;83;21028;-78
2022/05/26 08:27:21;;;;;;;7.95;3.95;;;;;;;21.84;67.25;99370.32;1713012;83;21015;-80
2022/05/26 08:29:51;;;;;;;6.17;3.50;;;;;;;21.87;66.64;99366.16;1713005;83;21516;-80
2022/05/26 08:32:19;;;;;;;5.28;3.27;;;;;;;21.90;66.50;99380.49;1712781;83;20988;-79
2022/05/26 08:34:45;;;;;;;10.95;3.70;;;;;;;21.88;65.40;99379.75;1711576;83;21031;-79
2022/05/26 08:37:18;;;;;;;5.22;3.50;;;;;;;21.87;65.20;99386.02;1707516;84;21056;-79
2022/05/26 08:39:45;;;;;;;8.45;3.47;;;;;;;21.99;65.70;99378.56;1699982;84;21045;-79
2022/05/26 08:42:19;;;;;;;5.95;3.45;;;;;;;22.08;64.16;99386.83;1705882;83;21031;-78
2022/05/26 08:44:47;;;;;;;7.97;2.90;;;;;;;22.11;64.14;99384.83;1711491;84;21019;-79
2022/05/26 08:47:17;;;;;;;5.22;2.85;;;;;;;22.16;63.08;99395.09;1707772;83;20987;-79
2022/05/26 08:49:59;;;;;;;4.05;2.50;;;;;;;22.17;62.36;99398.13;1700706;83;21043;-78
2022/05/26 08:53:05;;;;;;;7.17;3.08;;;;;;;22.21;61.79;99391.66;1711448;83;21475;-79
2022/05/26 08:55:44;;;;;;;5.90;2.80;;;;;;;22.24;61.05;99395.44;1706988;84;21067;-80
2022/05/26 08:58:23;;;;;;;5.58;2.60;;;;;;;22.32;61.76;99402.41;1706547;84;21050;-79
2022/05/26 09:00:52;;;;;;;5.05;3.02;;;;;;;22.46;61.94;99400.09;1695154;83;21079;-79
2022/05/26 09:03:33;;;;;;;5.53;3.10;;;;;;;22.58;60.48;99409.00;1714606;83;21075;-80
2022/05/26 09:06:17;;;;;;;4.90;2.67;;;;;;;22.63;59.71;99404.23;1716916;83;21521;-80
2022/05/26 09:14:32;;;;;;;6.28;2.22;;;;;;;22.93;57.36;99403.03;1710184;83;21135;-79
2022/05/26 09:17:10;;;;;;;4.92;2.70;;;;;;;23.02;57.35;99410.36;1709976;83;20984;-79
2022/05/26 09:19:48;;;;;;;6.53;2.60;;;;;;;23.13;57.52;99398.48;1706394;83;21005;-79
2022/05/26 09:22:40;;;;;;;5.08;2.20;;;;;;;23.14;57.30;99391.37;1709910;84;21053;-79
2022/05/26 09:25:12;;;;;;;6.35;2.27;;;;;;;23.25;55.73;99390.12;1706116;84;20995;-79
2022/05/26 09:27:43;;;;;;;4.85;2.30;;;;;;;23.34;55.75;99390.78;1705840;84;21020;-79
2022/05/26 09:30:29;;;;;;;3.87;2.35;;;;;;;23.30;56.30;99392.42;1700220;84;20981;-79
2022/05/26 09:32:57;;;;;;;3.35;1.90;;;;;;;23.32;55.31;99399.82;1704548;84;21523;-80
2022/05/26 09:35:28;;;;;;;4.53;1.85;;;;;;;23.28;52.58;99394.34;1704596;84;20980;-79
2022/05/26 09:38:00;;;;;;;3.55;1.95;;;;;;;23.44;52.37;99404.22;1694036;83;21031;-79
2022/05/26 09:40:40;;;;;;;5.57;2.10;;;;;;;23.55;50.46;99381.70;1702230;84;20977;-79
2022/05/26 09:43:19;;;;;;;7.28;2.40;;;;;;;23.59;51.06;99400.41;1700490;84;21070;-79
2022/05/26 09:45:56;;;;;;;4.53;2.45;;;;;;;23.56;53.78;99392.70;1702417;84;21089;-78
2022/05/26 09:48:27;;;;;;;7.58;2.40;;;;;;;23.59;53.61;99387.14;1701048;84;21001;-79
2022/05/26 09:51:09;;;;;;;5.85;2.30;;;;;;;23.63;53.80;99385.11;1708144;83;21012;-80
2022/05/26 09:53:41;;;;;;;4.90;2.37;;;;;;;23.63;54.01;99387.77;1698077;84;21109;-79
2022/05/26 09:56:11;;;;;;;3.27;2.00;;;;;;;23.58;53.25;99393.91;1704444;84;21015;-79
2022/05/26 09:58:42;;;;;;;3.95;2.08;;;;;;;23.58;52.52;99388.12;1703333;84;20994;-79
2022/05/26 10:01:29;;;;;;;3.08;2.25;;;;;;;23.68;52.00;99386.95;1698794;84;21063;-79
2022/05/26 10:04:10;;;;;;;4.80;1.80;;;;;;;23.83;52.02;99386.30;1694702;83;21093;-80
2022/05/26 10:06:41;;;;;;;4.45;1.70;;;;;;;23.94;49.58;99404.94;1698008;84;21490;-79
2022/05/26 10:09:31;;;;;;;6.67;2.00;;;;;;;23.98;49.61;99409.05;1709878;84;21031;-79
2022/05/26 10:12:19;;;;;;;6.12;2.30;;;;;;;24.12;49.97;99406.67;1698611;84;20982;-78
2022/05/26 10:15:18;;;;;;;4.00;2.20;;;;;;;24.16;48.54;99409.95;1701424;84;21076;-79
2022/05/26 10:17:56;;;;;;;5.10;1.90;;;;;;;24.18;49.89;99406.69;1708231;83;21040;-78
2022/05/26 10:21:01;;;;;;;4.85;2.40;;;;;;;24.26;48.65;99396.31;1704076;83;21048;-79
2022/05/26 10:23:48;;;;;;;4.60;2.10;;;;;;;24.41;49.39;99412.41;1708724;83;21611;-80
2022/05/26 10:26:47;;;;;;;3.87;1.98;;;;;;;24.45;49.76;99401.52;1716505;83;21042;-80
2022/05/26 10:30:00;;;;;;;2.72;1.72;;;;;;;24.38;49.32;99408.64;1701845;83;21495;-78
2022/05/26 10:33:11;;;;;;;2.85;1.80;;;;;;;24.51;49.96;99408.59;1701834;83;21029;-79
2022/05/26 10:36:38;;;;;;;4.70;1.87;;;;;;;24.60;49.23;99409.17;1698163;84;21055;-79
2022/05/26 10:39:34;;;;;;;6.60;2.40;;;;;;;24.67;49.83;99412.67;1710539;83;21602;-78
2022/05/26 10:42:11;;;;;;;2.40;1.70;;;;;;;24.77;48.94;99413.64;1712376;82;21091;-80
2022/05/26 10:45:03;;;;;;;3.87;1.70;;;;;;;24.93;46.00;99413.27;1710531;84;21012;-79
2022/05/26 10:47:37;;;;;;;3.27;1.77;;;;;;;24.87;46.74;99406.65;1710017;83;20988;-79
2022/05/26 10:50:16;;;;;;;3.15;1.82;;;;;;;25.06;48.14;99416.64;1697512;83;21089;-79
2022/05/26 10:52:47;;;;;;;2.85;1.85;;;;;;;25.10;48.47;99410.60;1715595;83;21118;-79
2022/05/26 10:55:21;;;;;;;2.62;1.70;;;;;;;25.14;47.78;99416.03;1705687;83;21086;-79
2022/05/26 10:57:56;;;;;;;4.62;1.70;;;;;;;25.23;46.84;99411.80;1716335;83;21578;-78
2022/05/26 11:00:28;;;;;;;6.65;1.80;;;;;;;25.11;46.39;99411.81;1698515;84;21348;-79
2022/05/26 11:03:15;;;;;;;2.75;1.77;;;;;;;25.09;46.80;99404.45;1713239;83;21448;-80
2022/05/26 11:05:48;;;;;;;3.20;1.65;;;;;;;25.19;46.32;99408.05;1705778;83;21519;-79
2022/05/26 11:08:38;;;;;;;4.80;1.62;;;;;;;25.27;41.12;99414.58;1685225;84;21010;-80
2022/05/26 11:11:40;;;;;;;2.83;1.62;;;;;;;25.31;40.58;99412.05;1709128;83;21007;-79
2022/05/26 11:17:42;;;;;;;5.75;1.90;;;;;;;25.22;39.39;99395.50;1717038;83;21028;-78
2022/05/26 11:20:20;;;;;;;3.65;1.47;;;;;;;25.27;44.74;99399.94;1714121;83;21053;-80
2022/05/26 11:22:51;;;;;;;3.40;1.67;;;;;;;25.41;45.89;99398.35;1715344;83;21031;-79
2022/05/26 11:25:41;;;;;;;2.70;1.62;;;;;;;25.40;43.34;99397.48;1711569;83;21007;-79
2022/05/26 11:28:14;;;;;;;1.98;1.40;;;;;;;25.53;42.54;99405.82;1715762;83;21126;-79
2022/05/26 11:36:53;;;;;;;4.40;1.80;;;;;;;25.63;45.49;99395.26;1711240;83;21071;-79
2022/05/26 11:39:29;;;;;;;4.12;1.60;;;;;;;25.60;38.36;99398.53;1708220;83;21089;-79
2022/05/26 11:42:07;;;;;;;3.27;1.67;;;;;;;25.80;38.42;99406.66;1707043;83;21543;-80
2022/05/26 11:44:44;;;;;;;4.78;1.92;;;;;;;25.67;37.12;99394.03;1708998;84;21027;-79
2022/05/26 11:47:56;;;;;;;2.47;1.55;;;;;;;25.52;37.71;99399.63;1709175;83;21567;-79
2022/05/26 11:50:51;;;;;;;2.90;1.60;;;;;;;25.72;37.89;99397.97;1693103;83;21027;-80
2022/05/26 11:53:37;;;;;;;2.27;1.40;;;;;;;25.85;42.36;99396.97;1706012;83;21018;-79
2022/05/26 11:56:28;;;;;;;3.30;1.50;;;;;;;25.97;43.46;99393.30;1664542;84;21035;-78
2022/05/26 11:59:33;;;;;;;5.85;1.40;;;;;;;26.10;43.80;99381.97;1711087;84;21024;-79
2022/05/26 12:02:08;;;;;;;3.25;1.67;;;;;;;26.20;44.07;99387.33;1711438;83;21059;-78
2022/05/26 12:04:38;;;;;;;5.70;1.45;;;;;;;26.18;43.97;99379.95;1715430;83;21542;-80
2022/05/26 12:07:18;;;;;;;5.15;1.67;;;;;;;26.31;44.05;99375.27;1709854;83;21519;-80
2022/05/26 12:09:57;;;;;;;3.90;1.77;;;;;;;26.24;43.88;99374.09;1709468;83;21340;-79
2022/05/26 12:12:33;;;;;;;6.05;1.90;;;;;;;26.55;40.11;99390.13;1677608;84;20999;-80
2022/05/26 12:15:06;;;;;;;6.22;1.70;;;;;;;26.45;35.71;99391.41;1697477;84;21019;-80
2022/05/26 12:17:52;;;;;;;4.22;1.80;;;;;;;26.83;35.32;99381.07;1672358;84;21055;-80
2022/05/26 12:20:24;;;;;;;4.33;1.85;;;;;;;27.09;34.46;99391.59;1704229;83;21004;-81
2022/05/26 12:22:57;;;;;;;4.22;1.50;;;;;;;27.62;35.11;99385.09;1700738;83;21032;-80
2022/05/26 12:25:39;;;;;;;1.98;1.30;;;;;;;28.19;37.43;99392.36;1701308;83;21051;-80
2022/05/26 12:28:29;;;;;;;2.77;1.60;;;;;;;28.53;38.15;99402.06;1711272;83;20993;-81
2022/05/26 12:31:01;;;;;;;2.27;1.47;;;;;;;28.82;37.78;99395.77;1702513;83;21208;-81
2022/05/26 12:33:36;;;;;;;8.18;1.50;;;;;;;29.22;37.81;99391.91;1712972;83;20995;-80
2022/05/26 12:36:20;;;;;;;4.35;1.37;;;;;;;29.20;38.24;99387.20;1700651;84;21108;-81
2022/05/26 12:39:15;;;;;;;2.95;1.50;;;;;;;29.34;36.60;99389.36;1702382;83;20956;-79
2022/05/26 12:42:19;;;;;;;7.08;1.62;;;;;;;29.27;37.15;99382.95;1704520;83;21042;-80